sensor_id;sensor_type;location;lat;lon;timestamp;pressure;altitude;pressure_sealevel;temperature;humidity
58385;BME280;44185;47.844;8.966;2023-02-17T00:00:03;97162.34;;;1.66;100.00
58385;BME280;44185;47.844;8.966;2023-02-17T00:02:29;97160.78;;;1.60;100.00
58385;BME280;44185;47.844;8.966;2023-02-17T00:04:54;97154.59;;;1.63;100.00
58385;BME280;44185;47.844;8.966;2023-02-17T00:07:19;97156.50;;;1.59;100.00
58385;BME280;44185;47.844;8.966;2023-02-17T00:09:45;97157.22;;;1.63;100.00
58385;BME280;44185;47.844;8.966;2023-02-17T00:12:12;97157.50;;;1.55;100.00
58385;BME280;44185;47.844;8.966;2023-02-17T00:14:37;97162.06;;;1.48;100.00
58385;BME280;44185;47.844;8.966;2023-02-17T00:17:03;97155.56;;;1.60;100.00
58385;BME280;44185;47.844;8.966;2023-02-17T00:19:28;97160.69;;;1.63;100.00
58385;BME280;44185;47.844;8.966;2023-02-17T00:21:55;97159.66;;;1.67;100.00
58385;BME280;44185;47.844;8.966;2023-02-17T00:24:21;97167.34;;;1.72;100.00
58385;BME280;44185;47.844;8.966;2023-02-17T00:26:47;97155.94;;;1.75;100.00
58385;BME280;44185;47.844;8.966;2023-02-17T00:29:15;97153.38;;;1.73;100.00
58385;BME280;44185;47.844;8.966;2023-02-17T00:31:41;97159.38;;;1.75;100.00
58385;BME280;44185;47.844;8.966;2023-02-17T00:34:06;97161.53;;;1.64;100.00
58385;BME280;44185;47.844;8.966;2023-02-17T00:36:32;97160.19;;;1.52;100.00
58385;BME280;44185;47.844;8.966;2023-02-17T00:38:57;97158.41;;;1.54;100.00
58385;BME280;44185;47.844;8.966;2023-02-17T00:41:24;97166.38;;;1.49;100.00
58385;BME280;44185;47.844;8.966;2023-02-17T00:43:49;97170.72;;;1.49;100.00
58385;BME280;44185;47.844;8.966;2023-02-17T00:46:16;97171.69;;;1.46;100.00
58385;BME280;44185;47.844;8.966;2023-02-17T00:48:42;97172.81;;;1.39;100.00
58385;BME280;44185;47.844;8.966;2023-02-17T00:51:09;97171.13;;;1.38;100.00
58385;BME280;44185;47.844;8.966;2023-02-17T00:53:35;97173.72;;;1.38;100.00
58385;BME280;44185;47.844;8.966;2023-02-17T00:56:00;97175.31;;;1.42;100.00
58385;BME280;44185;47.844;8.966;2023-02-17T00:58:26;97183.94;;;1.44;100.00
58385;BME280;44185;47.844;8.966;2023-02-17T01:00:52;97180.47;;;1.43;100.00
58385;BME280;44185;47.844;8.966;2023-02-17T01:03:20;97175.25;;;1.43;100.00
58385;BME280;44185;47.844;8.966;2023-02-17T01:05:47;97181.56;;;1.38;100.00
58385;BME280;44185;47.844;8.966;2023-02-17T01:08:13;97178.94;;;1.38;100.00
58385;BME280;44185;47.844;8.966;2023-02-17T01:10:40;97184.97;;;1.40;100.00
58385;BME280;44185;47.844;8.966;2023-02-17T01:13:06;97190.34;;;1.35;100.00
58385;BME280;44185;47.844;8.966;2023-02-17T01:15:35;97188.44;;;1.40;100.00
58385;BME280;44185;47.844;8.966;2023-02-17T01:18:01;97183.31;;;1.37;100.00
58385;BME280;44185;47.844;8.966;2023-02-17T01:20:28;97190.44;;;1.32;100.00
58385;BME280;44185;47.844;8.966;2023-02-17T01:22:54;97181.75;;;1.31;100.00
58385;BME280;44185;47.844;8.966;2023-02-17T01:25:19;97169.75;;;1.26;100.00
58385;BME280;44185;47.844;8.966;2023-02-17T01:27:44;97177.44;;;1.30;100.00
58385;BME280;44185;47.844;8.966;2023-02-17T01:30:11;97172.91;;;1.36;100.00
58385;BME280;44185;47.844;8.966;2023-02-17T01:32:36;97169.47;;;1.35;100.00
58385;BME280;44185;47.844;8.966;2023-02-17T01:35:02;97166.03;;;1.33;100.00
58385;BME280;44185;47.844;8.966;2023-02-17T01:37:30;97167.16;;;1.26;100.00
58385;BME280;44185;47.844;8.966;2023-02-17T01:39:56;97162.72;;;1.28;100.00
58385;BME280;44185;47.844;8.966;2023-02-17T01:42:21;97161.94;;;1.26;100.00
58385;BME280;44185;47.844;8.966;2023-02-17T01:47:54;97159.44;;;1.22;100.00
58385;BME280;44185;47.844;8.966;2023-02-17T01:50:23;97159.03;;;1.08;100.00
58385;BME280;44185;47.844;8.966;2023-02-17T01:52:52;97157.06;;;1.15;100.00
58385;BME280;44185;47.844;8.966;2023-02-17T01:55:19;97148.34;;;1.16;100.00
58385;BME280;44185;47.844;8.966;2023-02-17T01:57:46;97152.72;;;1.15;100.00
58385;BME280;44185;47.844;8.966;2023-02-17T02:00:14;97149.31;;;1.13;100.00
58385;BME280;44185;47.844;8.966;2023-02-17T02:02:43;97153.78;;;1.09;100.00
58385;BME280;44185;47.844;8.966;2023-02-17T02:05:10;97145.22;;;1.06;100.00
58385;BME280;44185;47.844;8.966;2023-02-17T02:07:39;97145.00;;;1.12;100.00
58385;BME280;44185;47.844;8.966;2023-02-17T02:10:07;97137.53;;;1.01;100.00
58385;BME280;44185;47.844;8.966;2023-02-17T02:12:34;97138.38;;;1.02;100.00
58385;BME280;44185;47.844;8.966;2023-02-17T02:15:02;97140.13;;;1.01;100.00
58385;BME280;44185;47.844;8.966;2023-02-17T02:17:34;97135.22;;;0.92;100.00
58385;BME280;44185;47.844;8.966;2023-02-17T02:20:25;97135.03;;;0.98;100.00
58385;BME280;44185;47.844;8.966;2023-02-17T02:26:15;97131.56;;;0.97;100.00
58385;BME280;44185;47.844;8.966;2023-02-17T02:29:00;97134.81;;;1.04;100.00
58385;BME280;44185;47.844;8.966;2023-02-17T02:31:40;97129.59;;;1.04;100.00
58385;BME280;44185;47.844;8.966;2023-02-17T02:34:14;97119.69;;;1.16;100.00
58385;BME280;44185;47.844;8.966;2023-02-17T02:36:44;97125.31;;;1.03;100.00
58385;BME280;44185;47.844;8.966;2023-02-17T02:39:16;97117.34;;;1.08;100.00
58385;BME280;44185;47.844;8.966;2023-02-17T02:41:44;97121.28;;;1.20;100.00
58385;BME280;44185;47.844;8.966;2023-02-17T02:44:13;97120.31;;;1.22;100.00
58385;BME280;44185;47.844;8.966;2023-02-17T02:46:39;97114.03;;;1.28;100.00
58385;BME280;44185;47.844;8.966;2023-02-17T02:49:06;97111.28;;;1.33;100.00
58385;BME280;44185;47.844;8.966;2023-02-17T02:51:42;97111.22;;;1.35;100.00
58385;BME280;44185;47.844;8.966;2023-02-17T02:54:17;97116.38;;;1.36;100.00
58385;BME280;44185;47.844;8.966;2023-02-17T02:59:44;97106.53;;;1.44;100.00
58385;BME280;44185;47.844;8.966;2023-02-17T03:02:17;97110.63;;;1.52;100.00
58385;BME280;44185;47.844;8.966;2023-02-17T03:04:51;97106.22;;;1.54;100.00
58385;BME280;44185;47.844;8.966;2023-02-17T03:07:25;97107.75;;;1.60;100.00
58385;BME280;44185;47.844;8.966;2023-02-17T03:09:54;97118.41;;;1.53;100.00
58385;BME280;44185;47.844;8.966;2023-02-17T03:12:21;97122.69;;;1.56;100.00
58385;BME280;44185;47.844;8.966;2023-02-17T03:14:47;97113.94;;;1.57;100.00
58385;BME280;44185;47.844;8.966;2023-02-17T03:17:14;97118.19;;;1.60;100.00
58385;BME280;44185;47.844;8.966;2023-02-17T03:19:39;97117.28;;;1.61;100.00
58385;BME280;44185;47.844;8.966;2023-02-17T03:22:09;97117.34;;;1.59;100.00
58385;BME280;44185;47.844;8.966;2023-02-17T03:24:38;97113.88;;;1.59;100.00
58385;BME280;44185;47.844;8.966;2023-02-17T03:27:04;97110.34;;;1.60;100.00
58385;BME280;44185;47.844;8.966;2023-02-17T03:29:29;97114.06;;;1.54;100.00
58385;BME280;44185;47.844;8.966;2023-02-17T03:31:55;97109.66;;;1.54;100.00
58385;BME280;44185;47.844;8.966;2023-02-17T03:34:20;97114.69;;;1.61;100.00
58385;BME280;44185;47.844;8.966;2023-02-17T03:36:45;97116.25;;;1.65;100.00
58385;BME280;44185;47.844;8.966;2023-02-17T03:39:11;97114.56;;;1.64;100.00
58385;BME280;44185;47.844;8.966;2023-02-17T03:41:38;97113.63;;;1.66;100.00
58385;BME280;44185;47.844;8.966;2023-02-17T03:44:03;97111.78;;;1.69;100.00
58385;BME280;44185;47.844;8.966;2023-02-17T03:46:29;97117.88;;;1.69;100.00
58385;BME280;44185;47.844;8.966;2023-02-17T03:48:54;97119.56;;;1.70;100.00
58385;BME280;44185;47.844;8.966;2023-02-17T03:51:22;97127.28;;;1.73;100.00
58385;BME280;44185;47.844;8.966;2023-02-17T03:53:49;97122.72;;;1.80;100.00
58385;BME280;44185;47.844;8.966;2023-02-17T03:56:15;97117.78;;;1.72;100.00
58385;BME280;44185;47.844;8.966;2023-02-17T03:58:57;97115.03;;;1.75;100.00
58385;BME280;44185;47.844;8.966;2023-02-17T04:01:23;97113.94;;;1.81;100.00
58385;BME280;44185;47.844;8.966;2023-02-17T04:03:49;97120.66;;;1.88;100.00
58385;BME280;44185;47.844;8.966;2023-02-17T04:06:14;97120.53;;;1.92;100.00
58385;BME280;44185;47.844;8.966;2023-02-17T04:08:40;97121.28;;;1.95;100.00
58385;BME280;44185;47.844;8.966;2023-02-17T04:11:07;97126.63;;;1.92;100.00
58385;BME280;44185;47.844;8.966;2023-02-17T04:13:33;97113.25;;;2.02;100.00
58385;BME280;44185;47.844;8.966;2023-02-17T04:16:00;97115.88;;;2.00;100.00
58385;BME280;44185;47.844;8.966;2023-02-17T04:18:26;97118.47;;;2.02;100.00
58385;BME280;44185;47.844;8.966;2023-02-17T04:20:52;97120.09;;;2.04;100.00
58385;BME280;44185;47.844;8.966;2023-02-17T04:23:18;97124.69;;;2.21;100.00
58385;BME280;44185;47.844;8.966;2023-02-17T04:25:44;97127.56;;;2.38;100.00
58385;BME280;44185;47.844;8.966;2023-02-17T04:28:10;97133.53;;;2.41;100.00
58385;BME280;44185;47.844;8.966;2023-02-17T04:30:36;97126.38;;;2.47;100.00
58385;BME280;44185;47.844;8.966;2023-02-17T04:33:03;97118.38;;;2.50;100.00
58385;BME280;44185;47.844;8.966;2023-02-17T04:35:29;97113.97;;;2.52;100.00
58385;BME280;44185;47.844;8.966;2023-02-17T04:37:54;97107.69;;;2.56;100.00
58385;BME280;44185;47.844;8.966;2023-02-17T04:40:21;97109.28;;;2.60;100.00
58385;BME280;44185;47.844;8.966;2023-02-17T04:42:46;97109.66;;;2.73;100.00
58385;BME280;44185;47.844;8.966;2023-02-17T04:45:12;97102.41;;;2.80;100.00
58385;BME280;44185;47.844;8.966;2023-02-17T04:47:38;97100.19;;;2.71;100.00
58385;BME280;44185;47.844;8.966;2023-02-17T04:50:06;97097.56;;;2.71;100.00
58385;BME280;44185;47.844;8.966;2023-02-17T04:52:32;97109.13;;;2.65;100.00
58385;BME280;44185;47.844;8.966;2023-02-17T04:54:57;97102.06;;;2.67;100.00
58385;BME280;44185;47.844;8.966;2023-02-17T04:57:23;97092.25;;;2.72;100.00
58385;BME280;44185;47.844;8.966;2023-02-17T04:59:48;97105.91;;;2.79;100.00
58385;BME280;44185;47.844;8.966;2023-02-17T05:02:14;97101.44;;;2.83;100.00
58385;BME280;44185;47.844;8.966;2023-02-17T05:04:39;97103.97;;;2.84;100.00
58385;BME280;44185;47.844;8.966;2023-02-17T05:07:06;97104.50;;;2.93;100.00
58385;BME280;44185;47.844;8.966;2023-02-17T05:09:31;97103.63;;;2.94;100.00
58385;BME280;44185;47.844;8.966;2023-02-17T05:11:57;97098.25;;;2.97;100.00
58385;BME280;44185;47.844;8.966;2023-02-17T05:14:23;97104.94;;;3.04;100.00
58385;BME280;44185;47.844;8.966;2023-02-17T05:16:48;97111.84;;;3.05;100.00
58385;BME280;44185;47.844;8.966;2023-02-17T05:19:14;97113.63;;;3.05;100.00
58385;BME280;44185;47.844;8.966;2023-02-17T05:21:39;97114.34;;;3.08;100.00
58385;BME280;44185;47.844;8.966;2023-02-17T05:24:06;97109.72;;;3.15;100.00
58385;BME280;44185;47.844;8.966;2023-02-17T05:26:32;97114.88;;;3.17;100.00
58385;BME280;44185;47.844;8.966;2023-02-17T05:28:57;97113.03;;;3.19;100.00
58385;BME280;44185;47.844;8.966;2023-02-17T05:31:23;97120.56;;;3.27;100.00
58385;BME280;44185;47.844;8.966;2023-02-17T05:33:48;97119.41;;;3.34;100.00
58385;BME280;44185;47.844;8.966;2023-02-17T05:36:14;97119.91;;;3.42;100.00
58385;BME280;44185;47.844;8.966;2023-02-17T05:38:40;97121.41;;;3.48;100.00
58385;BME280;44185;47.844;8.966;2023-02-17T05:41:07;97119.53;;;3.52;100.00
58385;BME280;44185;47.844;8.966;2023-02-17T05:43:32;97120.06;;;3.60;100.00
58385;BME280;44185;47.844;8.966;2023-02-17T05:46:00;97110.28;;;3.64;100.00
58385;BME280;44185;47.844;8.966;2023-02-17T05:48:26;97110.94;;;3.69;100.00
58385;BME280;44185;47.844;8.966;2023-02-17T05:50:51;97121.00;;;3.78;100.00
58385;BME280;44185;47.844;8.966;2023-02-17T05:53:17;97116.94;;;3.92;100.00
58385;BME280;44185;47.844;8.966;2023-02-17T05:55:43;97117.50;;;3.99;100.00
58385;BME280;44185;47.844;8.966;2023-02-17T05:58:09;97113.25;;;3.96;100.00
58385;BME280;44185;47.844;8.966;2023-02-17T06:00:35;97115.78;;;4.17;100.00
58385;BME280;44185;47.844;8.966;2023-02-17T06:03:00;97116.81;;;4.34;100.00
58385;BME280;44185;47.844;8.966;2023-02-17T06:05:26;97118.69;;;4.30;100.00
58385;BME280;44185;47.844;8.966;2023-02-17T06:07:51;97119.19;;;4.19;100.00
58385;BME280;44185;47.844;8.966;2023-02-17T06:10:16;97123.03;;;4.12;100.00
58385;BME280;44185;47.844;8.966;2023-02-17T06:12:42;97124.78;;;4.50;100.00
58385;BME280;44185;47.844;8.966;2023-02-17T06:15:09;97130.25;;;4.45;100.00
58385;BME280;44185;47.844;8.966;2023-02-17T06:17:35;97127.69;;;4.44;100.00
58385;BME280;44185;47.844;8.966;2023-02-17T06:20:00;97135.91;;;4.55;100.00
58385;BME280;44185;47.844;8.966;2023-02-17T06:22:26;97129.69;;;4.58;100.00
58385;BME280;44185;47.844;8.966;2023-02-17T06:24:51;97121.03;;;4.56;100.00
58385;BME280;44185;47.844;8.966;2023-02-17T06:27:17;97119.09;;;4.60;100.00
58385;BME280;44185;47.844;8.966;2023-02-17T06:29:43;97126.28;;;4.56;100.00
58385;BME280;44185;47.844;8.966;2023-02-17T06:32:10;97130.81;;;4.52;100.00
58385;BME280;44185;47.844;8.966;2023-02-17T06:34:35;97124.72;;;4.52;100.00
58385;BME280;44185;47.844;8.966;2023-02-17T06:37:00;97122.09;;;4.52;100.00
58385;BME280;44185;47.844;8.966;2023-02-17T06:39:26;97129.28;;;4.48;100.00
58385;BME280;44185;47.844;8.966;2023-02-17T06:41:51;97125.84;;;4.46;100.00
58385;BME280;44185;47.844;8.966;2023-02-17T06:44:17;97126.69;;;4.47;100.00
58385;BME280;44185;47.844;8.966;2023-02-17T06:46:42;97126.00;;;4.43;100.00
58385;BME280;44185;47.844;8.966;2023-02-17T06:49:09;97122.31;;;4.47;100.00
58385;BME280;44185;47.844;8.966;2023-02-17T06:51:35;97119.56;;;4.50;100.00
58385;BME280;44185;47.844;8.966;2023-02-17T06:54:00;97123.16;;;4.48;100.00
58385;BME280;44185;47.844;8.966;2023-02-17T06:56:26;97131.81;;;4.50;100.00
58385;BME280;44185;47.844;8.966;2023-02-17T06:58:51;97135.78;;;4.59;100.00
58385;BME280;44185;47.844;8.966;2023-02-17T07:01:19;97141.06;;;4.57;100.00
58385;BME280;44185;47.844;8.966;2023-02-17T07:03:44;97137.53;;;4.58;100.00
58385;BME280;44185;47.844;8.966;2023-02-17T07:06:11;97136.53;;;4.61;100.00
58385;BME280;44185;47.844;8.966;2023-02-17T07:08:37;97134.63;;;4.64;100.00
58385;BME280;44185;47.844;8.966;2023-02-17T07:11:04;97138.94;;;4.65;100.00
58385;BME280;44185;47.844;8.966;2023-02-17T07:13:29;97137.91;;;4.70;100.00
58385;BME280;44185;47.844;8.966;2023-02-17T07:15:55;97146.38;;;4.75;100.00
58385;BME280;44185;47.844;8.966;2023-02-17T07:18:20;97142.53;;;4.82;100.00
58385;BME280;44185;47.844;8.966;2023-02-17T07:20:46;97149.47;;;4.83;100.00
58385;BME280;44185;47.844;8.966;2023-02-17T07:23:12;97144.06;;;4.86;100.00
58385;BME280;44185;47.844;8.966;2023-02-17T07:25:38;97150.56;;;4.97;100.00
58385;BME280;44185;47.844;8.966;2023-02-17T07:28:03;97158.25;;;5.02;100.00
58385;BME280;44185;47.844;8.966;2023-02-17T07:30:29;97160.69;;;5.05;100.00
58385;BME280;44185;47.844;8.966;2023-02-17T07:32:54;97157.06;;;5.07;100.00
58385;BME280;44185;47.844;8.966;2023-02-17T07:35:20;97162.13;;;5.48;100.00
58385;BME280;44185;47.844;8.966;2023-02-17T07:37:45;97149.38;;;5.75;99.99
58385;BME280;44185;47.844;8.966;2023-02-17T07:40:12;97158.16;;;6.10;96.47
58385;BME280;44185;47.844;8.966;2023-02-17T07:42:38;97169.94;;;6.19;95.73
58385;BME280;44185;47.844;8.966;2023-02-17T07:45:04;97171.81;;;6.17;94.98
58385;BME280;44185;47.844;8.966;2023-02-17T07:47:30;97168.25;;;6.18;94.55
58385;BME280;44185;47.844;8.966;2023-02-17T07:49:56;97173.25;;;6.22;92.98
58385;BME280;44185;47.844;8.966;2023-02-17T07:52:21;97169.72;;;6.23;93.36
58385;BME280;44185;47.844;8.966;2023-02-17T07:54:46;97168.09;;;6.21;93.86
58385;BME280;44185;47.844;8.966;2023-02-17T07:57:14;97173.75;;;6.29;92.23
58385;BME280;44185;47.844;8.966;2023-02-17T07:59:39;97178.09;;;6.30;92.69
58385;BME280;44185;47.844;8.966;2023-02-17T08:02:05;97187.59;;;6.33;92.21
58385;BME280;44185;47.844;8.966;2023-02-17T08:04:30;97191.59;;;6.40;91.69
58385;BME280;44185;47.844;8.966;2023-02-17T08:06:56;97179.31;;;6.57;90.43
58385;BME280;44185;47.844;8.966;2023-02-17T08:09:21;97189.59;;;6.62;89.82
58385;BME280;44185;47.844;8.966;2023-02-17T08:11:46;97198.25;;;6.64;90.13
58385;BME280;44185;47.844;8.966;2023-02-17T08:14:14;97200.72;;;6.67;89.83
58385;BME280;44185;47.844;8.966;2023-02-17T08:16:40;97193.56;;;6.69;89.09
58385;BME280;44185;47.844;8.966;2023-02-17T08:19:05;97209.78;;;6.77;87.20
58385;BME280;44185;47.844;8.966;2023-02-17T08:21:31;97202.44;;;6.84;88.08
58385;BME280;44185;47.844;8.966;2023-02-17T08:23:56;97205.97;;;6.83;87.10
58385;BME280;44185;47.844;8.966;2023-02-17T08:26:22;97210.66;;;6.78;89.08
58385;BME280;44185;47.844;8.966;2023-02-17T08:28:48;97216.66;;;6.80;88.40
58385;BME280;44185;47.844;8.966;2023-02-17T08:31:16;97216.41;;;6.85;89.10
58385;BME280;44185;47.844;8.966;2023-02-17T08:33:42;97213.53;;;6.89;86.88
58385;BME280;44185;47.844;8.966;2023-02-17T08:36:08;97221.06;;;6.96;88.78
58385;BME280;44185;47.844;8.966;2023-02-17T08:38:34;97224.06;;;7.06;89.31
58385;BME280;44185;47.844;8.966;2023-02-17T08:40:59;97225.25;;;7.16;88.68
58385;BME280;44185;47.844;8.966;2023-02-17T08:43:25;97224.81;;;7.24;88.51
58385;BME280;44185;47.844;8.966;2023-02-17T08:45:50;97227.94;;;7.31;87.60
58385;BME280;44185;47.844;8.966;2023-02-17T08:48:17;97227.66;;;7.36;86.95
58385;BME280;44185;47.844;8.966;2023-02-17T08:50:45;97219.69;;;7.37;86.09
58385;BME280;44185;47.844;8.966;2023-02-17T08:53:11;97224.59;;;7.43;86.60
58385;BME280;44185;47.844;8.966;2023-02-17T08:55:36;97223.31;;;7.51;85.05
58385;BME280;44185;47.844;8.966;2023-02-17T08:58:02;97220.16;;;7.60;86.41
58385;BME280;44185;47.844;8.966;2023-02-17T09:00:28;97224.03;;;7.69;84.61
58385;BME280;44185;47.844;8.966;2023-02-17T09:02:53;97222.47;;;7.81;85.80
58385;BME280;44185;47.844;8.966;2023-02-17T09:05:20;97233.13;;;7.94;86.47
58385;BME280;44185;47.844;8.966;2023-02-17T09:07:45;97234.19;;;8.06;84.70
58385;BME280;44185;47.844;8.966;2023-02-17T09:10:12;97224.78;;;8.17;84.37
58385;BME280;44185;47.844;8.966;2023-02-17T09:12:37;97231.66;;;8.34;84.02
58385;BME280;44185;47.844;8.966;2023-02-17T09:15:03;97236.94;;;8.34;83.47
58385;BME280;44185;47.844;8.966;2023-02-17T09:17:29;97231.50;;;8.52;82.80
58385;BME280;44185;47.844;8.966;2023-02-17T09:19:54;97239.72;;;8.62;83.02
58385;BME280;44185;47.844;8.966;2023-02-17T09:22:22;97246.78;;;8.61;82.26
58385;BME280;44185;47.844;8.966;2023-02-17T09:24:48;97248.56;;;8.75;83.34
58385;BME280;44185;47.844;8.966;2023-02-17T09:27:13;97237.78;;;8.78;81.95
58385;BME280;44185;47.844;8.966;2023-02-17T09:29:38;97247.13;;;8.84;83.14
58385;BME280;44185;47.844;8.966;2023-02-17T09:32:05;97242.78;;;8.98;83.39
58385;BME280;44185;47.844;8.966;2023-02-17T09:34:34;97240.25;;;8.96;84.17
58385;BME280;44185;47.844;8.966;2023-02-17T09:37:00;97245.03;;;8.89;83.42
58385;BME280;44185;47.844;8.966;2023-02-17T09:39:26;97244.84;;;8.93;84.07
58385;BME280;44185;47.844;8.966;2023-02-17T09:41:52;97240.53;;;8.92;85.38
58385;BME280;44185;47.844;8.966;2023-02-17T09:44:22;97245.72;;;8.93;85.20
58385;BME280;44185;47.844;8.966;2023-02-17T09:46:54;97246.38;;;8.82;86.45
58385;BME280;44185;47.844;8.966;2023-02-17T09:49:23;97242.50;;;8.88;86.98
58385;BME280;44185;47.844;8.966;2023-02-17T09:51:53;97244.56;;;8.97;87.65
58385;BME280;44185;47.844;8.966;2023-02-17T09:54:27;97243.25;;;9.05;89.68
58385;BME280;44185;47.844;8.966;2023-02-17T09:56:54;97238.59;;;9.08;90.26
58385;BME280;44185;47.844;8.966;2023-02-17T09:59:23;97246.38;;;9.25;89.97
58385;BME280;44185;47.844;8.966;2023-02-17T10:01:58;97243.75;;;9.25;90.34
58385;BME280;44185;47.844;8.966;2023-02-17T10:04:28;97250.44;;;9.30;90.11
58385;BME280;44185;47.844;8.966;2023-02-17T10:07:05;97249.97;;;9.51;90.11
58385;BME280;44185;47.844;8.966;2023-02-17T10:09:39;97238.34;;;9.82;89.72
58385;BME280;44185;47.844;8.966;2023-02-17T10:12:08;97244.59;;;10.07;89.32
58385;BME280;44185;47.844;8.966;2023-02-17T10:14:39;97259.22;;;10.12;88.22
58385;BME280;44185;47.844;8.966;2023-02-17T10:17:09;97258.34;;;9.99;87.59
58385;BME280;44185;47.844;8.966;2023-02-17T10:19:43;97255.16;;;9.94;88.59
58385;BME280;44185;47.844;8.966;2023-02-17T10:22:17;97251.31;;;9.85;88.70
58385;BME280;44185;47.844;8.966;2023-02-17T10:24:44;97251.56;;;9.82;89.73
58385;BME280;44185;47.844;8.966;2023-02-17T10:27:27;97239.47;;;9.77;90.04
58385;BME280;44185;47.844;8.966;2023-02-17T10:30:03;97239.69;;;9.87;90.03
58385;BME280;44185;47.844;8.966;2023-02-17T10:32:44;97240.69;;;9.99;89.32
58385;BME280;44185;47.844;8.966;2023-02-17T10:35:15;97238.44;;;9.93;89.78
58385;BME280;44185;47.844;8.966;2023-02-17T10:37:45;97245.03;;;10.00;90.59
58385;BME280;44185;47.844;8.966;2023-02-17T10:40:17;97242.78;;;9.94;90.48
58385;BME280;44185;47.844;8.966;2023-02-17T10:42:44;97237.31;;;9.97;90.51
58385;BME280;44185;47.844;8.966;2023-02-17T10:45:14;97251.47;;;9.96;90.26
58385;BME280;44185;47.844;8.966;2023-02-17T10:47:43;97250.84;;;10.06;90.92
58385;BME280;44185;47.844;8.966;2023-02-17T10:50:17;97248.00;;;10.22;90.02
58385;BME280;44185;47.844;8.966;2023-02-17T10:52:43;97245.25;;;10.23;90.45
58385;BME280;44185;47.844;8.966;2023-02-17T10:55:18;97238.59;;;10.57;89.47
58385;BME280;44185;47.844;8.966;2023-02-17T10:57:48;97232.50;;;10.94;88.42
58385;BME280;44185;47.844;8.966;2023-02-17T11:00:16;97224.06;;;10.76;88.69
58385;BME280;44185;47.844;8.966;2023-02-17T11:02:44;97225.88;;;10.62;88.91
58385;BME280;44185;47.844;8.966;2023-02-17T11:05:20;97221.97;;;10.55;91.44
58385;BME280;44185;47.844;8.966;2023-02-17T11:07:47;97227.88;;;10.19;94.48
58385;BME280;44185;47.844;8.966;2023-02-17T11:10:20;97222.81;;;10.03;97.28
58385;BME280;44185;47.844;8.966;2023-02-17T11:12:46;97221.63;;;9.81;99.98
58385;BME280;44185;47.844;8.966;2023-02-17T11:15:15;97222.69;;;9.78;100.00
58385;BME280;44185;47.844;8.966;2023-02-17T11:17:42;97216.31;;;9.68;100.00
58385;BME280;44185;47.844;8.966;2023-02-17T11:20:27;97218.53;;;9.87;100.00
58385;BME280;44185;47.844;8.966;2023-02-17T11:23:00;97222.91;;;9.88;100.00
58385;BME280;44185;47.844;8.966;2023-02-17T11:25:29;97219.13;;;10.06;100.00
58385;BME280;44185;47.844;8.966;2023-02-17T11:27:56;97215.41;;;10.48;99.60
58385;BME280;44185;47.844;8.966;2023-02-17T11:30:22;97216.47;;;10.71;98.10
58385;BME280;44185;47.844;8.966;2023-02-17T11:32:49;97223.22;;;10.75;97.15
58385;BME280;44185;47.844;8.966;2023-02-17T11:35:23;97212.59;;;10.88;94.74
58385;BME280;44185;47.844;8.966;2023-02-17T11:37:50;97218.69;;;10.77;94.72
58385;BME280;44185;47.844;8.966;2023-02-17T11:40:23;97219.84;;;10.73;94.34
58385;BME280;44185;47.844;8.966;2023-02-17T11:42:56;97210.53;;;10.54;94.43
58385;BME280;44185;47.844;8.966;2023-02-17T11:45:22;97224.94;;;10.63;94.75
58385;BME280;44185;47.844;8.966;2023-02-17T11:47:59;97223.34;;;10.61;94.64
58385;BME280;44185;47.844;8.966;2023-02-17T11:50:30;97209.81;;;10.39;92.53
58385;BME280;44185;47.844;8.966;2023-02-17T11:53:06;97210.13;;;10.21;94.21
58385;BME280;44185;47.844;8.966;2023-02-17T11:55:45;97213.59;;;10.22;94.64
58385;BME280;44185;47.844;8.966;2023-02-17T11:58:26;97215.72;;;10.30;94.11
58385;BME280;44185;47.844;8.966;2023-02-17T12:01:00;97200.91;;;10.27;93.22
58385;BME280;44185;47.844;8.966;2023-02-17T12:03:56;97208.63;;;10.30;93.53
58385;BME280;44185;47.844;8.966;2023-02-17T12:06:36;97210.66;;;10.40;93.22
58385;BME280;44185;47.844;8.966;2023-02-17T12:09:12;97206.31;;;10.39;92.75
58385;BME280;44185;47.844;8.966;2023-02-17T12:11:49;97205.47;;;10.25;92.33
58385;BME280;44185;47.844;8.966;2023-02-17T12:14:32;97195.31;;;10.32;92.43
58385;BME280;44185;47.844;8.966;2023-02-17T12:17:08;97194.03;;;10.38;93.55
58385;BME280;44185;47.844;8.966;2023-02-17T12:19:43;97187.69;;;10.40;90.61
58385;BME280;44185;47.844;8.966;2023-02-17T12:22:15;97183.84;;;10.44;91.91
58385;BME280;44185;47.844;8.966;2023-02-17T12:25:04;97187.16;;;10.61;91.34
58385;BME280;44185;47.844;8.966;2023-02-17T12:27:44;97183.41;;;10.77;92.13
58385;BME280;44185;47.844;8.966;2023-02-17T12:30:32;97184.47;;;10.74;89.20
58385;BME280;44185;47.844;8.966;2023-02-17T12:33:27;97187.19;;;10.86;88.60
58385;BME280;44185;47.844;8.966;2023-02-17T12:36:01;97189.34;;;10.67;88.75
58385;BME280;44185;47.844;8.966;2023-02-17T12:38:30;97190.63;;;10.75;89.00
58385;BME280;44185;47.844;8.966;2023-02-17T12:41:00;97188.50;;;10.67;87.68
58385;BME280;44185;47.844;8.966;2023-02-17T12:43:31;97192.22;;;10.77;89.53
58385;BME280;44185;47.844;8.966;2023-02-17T12:46:04;97186.16;;;10.75;88.11
58385;BME280;44185;47.844;8.966;2023-02-17T12:48:36;97182.97;;;10.70;88.62
58385;BME280;44185;47.844;8.966;2023-02-17T12:51:05;97183.09;;;10.68;89.05
58385;BME280;44185;47.844;8.966;2023-02-17T12:53:48;97188.19;;;10.72;89.28
58385;BME280;44185;47.844;8.966;2023-02-17T12:56:42;97185.31;;;10.75;89.87
58385;BME280;44185;47.844;8.966;2023-02-17T12:59:14;97175.69;;;10.74;89.65
58385;BME280;44185;47.844;8.966;2023-02-17T13:01:48;97177.38;;;10.75;90.22
58385;BME280;44185;47.844;8.966;2023-02-17T13:04:17;97172.34;;;10.83;90.17
58385;BME280;44185;47.844;8.966;2023-02-17T13:06:46;97165.56;;;10.92;89.92
58385;BME280;44185;47.844;8.966;2023-02-17T13:09:20;97157.84;;;10.89;90.75
58385;BME280;44185;47.844;8.966;2023-02-17T13:11:48;97167.34;;;10.92;91.21
58385;BME280;44185;47.844;8.966;2023-02-17T13:14:24;97170.16;;;11.01;91.46
58385;BME280;44185;47.844;8.966;2023-02-17T13:16:52;97170.59;;;11.33;90.10